Terminal Aerodrome Forecast
Issued by NWS

Home | Current Version | Previous Version | Text Only | Print | Product List | Glossary On
Versions: 1 2 3 4 5 6 7 8 9 10 11 12 13
541
FTUS44 KBMX 101735
TAFTOI
TAF
KTOI 101735Z 1018/1118 04007KT P6SM SKC
     FM110000 00000KT P6SM SKC
     FM111100 09002KT P6SM OVC035
     FM111400 11005KT P6SM SCT015 OVC025=

USA.gov is the U.S. government's official web portal to all federal, state and local government web resources and services.